sensor_id;sensor_type;location;lat;lon;timestamp;temperature;humidity
10431;DHT22;5262;59.958;17.726;2024-01-10T00:01:23;-0.10;99.90
10431;DHT22;5262;59.958;17.726;2024-01-10T00:03:55;-0.10;99.90
10431;DHT22;5262;59.958;17.726;2024-01-10T00:06:20;-0.20;99.90
10431;DHT22;5262;59.958;17.726;2024-01-10T00:08:46;-0.20;99.90
10431;DHT22;5262;59.958;17.726;2024-01-10T00:11:12;-0.20;99.90
10431;DHT22;5262;59.958;17.726;2024-01-10T00:13:37;-0.30;99.90
10431;DHT22;5262;59.958;17.726;2024-01-10T00:16:03;-0.30;99.90
10431;DHT22;5262;59.958;17.726;2024-01-10T00:18:29;-0.30;99.90
10431;DHT22;5262;59.958;17.726;2024-01-10T00:20:54;-0.30;99.90
10431;DHT22;5262;59.958;17.726;2024-01-10T00:23:21;-0.40;99.90
10431;DHT22;5262;59.958;17.726;2024-01-10T00:25:47;-0.50;99.90
10431;DHT22;5262;59.958;17.726;2024-01-10T00:28:13;-0.50;99.90
10431;DHT22;5262;59.958;17.726;2024-01-10T00:30:39;-0.50;99.90
10431;DHT22;5262;59.958;17.726;2024-01-10T00:33:08;-0.50;99.90
10431;DHT22;5262;59.958;17.726;2024-01-10T00:35:33;-0.50;99.90
10431;DHT22;5262;59.958;17.726;2024-01-10T00:37:59;-0.40;99.90
10431;DHT22;5262;59.958;17.726;2024-01-10T00:40:25;-0.40;99.90
10431;DHT22;5262;59.958;17.726;2024-01-10T00:42:50;-0.50;99.90
10431;DHT22;5262;59.958;17.726;2024-01-10T00:45:16;-0.50;99.90
10431;DHT22;5262;59.958;17.726;2024-01-10T00:47:42;-0.50;99.90
10431;DHT22;5262;59.958;17.726;2024-01-10T00:50:08;-0.50;99.90
10431;DHT22;5262;59.958;17.726;2024-01-10T00:52:34;-0.50;99.90
10431;DHT22;5262;59.958;17.726;2024-01-10T00:54:59;-0.50;99.90
10431;DHT22;5262;59.958;17.726;2024-01-10T00:57:25;-0.50;99.90
10431;DHT22;5262;59.958;17.726;2024-01-10T00:59:51;-0.50;99.90
10431;DHT22;5262;59.958;17.726;2024-01-10T01:02:16;-0.30;99.90
10431;DHT22;5262;59.958;17.726;2024-01-10T01:04:42;-0.20;99.90
10431;DHT22;5262;59.958;17.726;2024-01-10T01:07:07;-0.20;99.90
10431;DHT22;5262;59.958;17.726;2024-01-10T01:09:34;-0.10;99.90
10431;DHT22;5262;59.958;17.726;2024-01-10T01:11:59;-0.10;99.90
10431;DHT22;5262;59.958;17.726;2024-01-10T01:14:25;-0.10;99.90
10431;DHT22;5262;59.958;17.726;2024-01-10T01:16:51;-0.20;99.90
10431;DHT22;5262;59.958;17.726;2024-01-10T01:19:17;-0.20;99.90
10431;DHT22;5262;59.958;17.726;2024-01-10T01:21:43;-0.20;99.90
10431;DHT22;5262;59.958;17.726;2024-01-10T01:24:08;-0.20;99.90
10431;DHT22;5262;59.958;17.726;2024-01-10T01:26:34;-0.20;99.90
10431;DHT22;5262;59.958;17.726;2024-01-10T01:29:00;-0.20;99.90
10431;DHT22;5262;59.958;17.726;2024-01-10T01:31:26;-0.30;99.90
10431;DHT22;5262;59.958;17.726;2024-01-10T01:33:51;-0.30;99.90
10431;DHT22;5262;59.958;17.726;2024-01-10T01:36:17;-0.30;99.90
10431;DHT22;5262;59.958;17.726;2024-01-10T01:38:43;-0.30;99.90
10431;DHT22;5262;59.958;17.726;2024-01-10T01:41:09;-0.40;99.90
10431;DHT22;5262;59.958;17.726;2024-01-10T01:43:35;-0.40;99.90
10431;DHT22;5262;59.958;17.726;2024-01-10T01:46:01;-0.40;99.90
10431;DHT22;5262;59.958;17.726;2024-01-10T01:48:28;-0.30;99.90
10431;DHT22;5262;59.958;17.726;2024-01-10T01:50:58;-0.30;99.90
10431;DHT22;5262;59.958;17.726;2024-01-10T01:53:26;-0.30;99.90
10431;DHT22;5262;59.958;17.726;2024-01-10T01:55:52;-0.30;99.90
10431;DHT22;5262;59.958;17.726;2024-01-10T01:58:19;-0.30;99.90
10431;DHT22;5262;59.958;17.726;2024-01-10T02:00:46;-0.40;99.90
10431;DHT22;5262;59.958;17.726;2024-01-10T02:03:12;-0.40;99.90
10431;DHT22;5262;59.958;17.726;2024-01-10T02:05:37;-0.50;99.90
10431;DHT22;5262;59.958;17.726;2024-01-10T02:08:03;-0.60;99.90
10431;DHT22;5262;59.958;17.726;2024-01-10T02:10:29;-0.70;99.90
10431;DHT22;5262;59.958;17.726;2024-01-10T02:12:55;-0.70;99.90
10431;DHT22;5262;59.958;17.726;2024-01-10T02:15:21;-0.70;99.90
10431;DHT22;5262;59.958;17.726;2024-01-10T02:17:46;-0.70;99.90
10431;DHT22;5262;59.958;17.726;2024-01-10T02:20:14;-0.80;99.90
10431;DHT22;5262;59.958;17.726;2024-01-10T02:22:44;-0.90;99.90
10431;DHT22;5262;59.958;17.726;2024-01-10T02:25:13;-0.90;99.90
10431;DHT22;5262;59.958;17.726;2024-01-10T02:27:40;-1.00;99.90
10431;DHT22;5262;59.958;17.726;2024-01-10T02:30:07;-1.10;99.90
10431;DHT22;5262;59.958;17.726;2024-01-10T02:32:34;-1.10;99.90
10431;DHT22;5262;59.958;17.726;2024-01-10T02:35:00;-1.20;99.90
10431;DHT22;5262;59.958;17.726;2024-01-10T02:37:26;-1.30;99.90
10431;DHT22;5262;59.958;17.726;2024-01-10T02:39:52;-1.20;99.90
10431;DHT22;5262;59.958;17.726;2024-01-10T02:42:18;-1.20;99.90
10431;DHT22;5262;59.958;17.726;2024-01-10T02:44:43;-1.30;99.90
10431;DHT22;5262;59.958;17.726;2024-01-10T02:47:12;-1.30;99.90
10431;DHT22;5262;59.958;17.726;2024-01-10T02:49:38;-1.30;99.90
10431;DHT22;5262;59.958;17.726;2024-01-10T02:52:04;-1.30;99.90
10431;DHT22;5262;59.958;17.726;2024-01-10T02:54:30;-1.30;99.90
10431;DHT22;5262;59.958;17.726;2024-01-10T02:56:56;-1.30;99.90
10431;DHT22;5262;59.958;17.726;2024-01-10T02:59:22;-1.40;99.90
10431;DHT22;5262;59.958;17.726;2024-01-10T03:01:47;-1.40;99.90
10431;DHT22;5262;59.958;17.726;2024-01-10T03:04:13;-1.50;99.90
10431;DHT22;5262;59.958;17.726;2024-01-10T03:06:38;-1.50;99.90
10431;DHT22;5262;59.958;17.726;2024-01-10T03:09:04;-1.50;99.90
10431;DHT22;5262;59.958;17.726;2024-01-10T03:11:30;-1.50;99.90
10431;DHT22;5262;59.958;17.726;2024-01-10T03:14:02;-1.50;99.90
10431;DHT22;5262;59.958;17.726;2024-01-10T03:16:32;-1.50;99.90
10431;DHT22;5262;59.958;17.726;2024-01-10T03:18:58;-1.40;99.90
10431;DHT22;5262;59.958;17.726;2024-01-10T03:21:24;-1.30;99.90
10431;DHT22;5262;59.958;17.726;2024-01-10T03:23:58;-1.20;99.90
10431;DHT22;5262;59.958;17.726;2024-01-10T03:26:24;-1.20;99.90
10431;DHT22;5262;59.958;17.726;2024-01-10T03:28:50;-1.20;99.90
10431;DHT22;5262;59.958;17.726;2024-01-10T03:31:16;-1.10;99.90
10431;DHT22;5262;59.958;17.726;2024-01-10T03:33:42;-1.10;99.90
10431;DHT22;5262;59.958;17.726;2024-01-10T03:36:12;-1.10;99.90
10431;DHT22;5262;59.958;17.726;2024-01-10T03:38:38;-1.20;99.90
10431;DHT22;5262;59.958;17.726;2024-01-10T03:41:04;-1.20;99.90
10431;DHT22;5262;59.958;17.726;2024-01-10T03:43:30;-1.20;99.90
10431;DHT22;5262;59.958;17.726;2024-01-10T03:45:57;-1.30;99.90
10431;DHT22;5262;59.958;17.726;2024-01-10T03:48:22;-1.30;99.90
10431;DHT22;5262;59.958;17.726;2024-01-10T03:50:48;-1.40;99.90
10431;DHT22;5262;59.958;17.726;2024-01-10T03:53:14;-1.40;99.90
10431;DHT22;5262;59.958;17.726;2024-01-10T03:55:40;-1.40;99.90
10431;DHT22;5262;59.958;17.726;2024-01-10T03:58:05;-1.30;99.90
10431;DHT22;5262;59.958;17.726;2024-01-10T04:00:31;-1.30;99.90
10431;DHT22;5262;59.958;17.726;2024-01-10T04:02:57;-1.20;99.90
10431;DHT22;5262;59.958;17.726;2024-01-10T04:05:23;-1.20;99.90
10431;DHT22;5262;59.958;17.726;2024-01-10T04:07:51;-1.20;99.90
10431;DHT22;5262;59.958;17.726;2024-01-10T04:10:16;-1.20;99.90
10431;DHT22;5262;59.958;17.726;2024-01-10T04:12:45;-1.20;99.90
10431;DHT22;5262;59.958;17.726;2024-01-10T04:15:12;-1.10;99.90
10431;DHT22;5262;59.958;17.726;2024-01-10T04:17:38;-1.20;99.90
10431;DHT22;5262;59.958;17.726;2024-01-10T04:20:04;-1.20;99.90
10431;DHT22;5262;59.958;17.726;2024-01-10T04:22:32;-1.20;99.90
10431;DHT22;5262;59.958;17.726;2024-01-10T04:24:59;-1.20;99.90
10431;DHT22;5262;59.958;17.726;2024-01-10T04:27:25;-1.20;99.90
10431;DHT22;5262;59.958;17.726;2024-01-10T04:29:51;-1.30;99.90
10431;DHT22;5262;59.958;17.726;2024-01-10T04:32:17;-1.20;99.90
10431;DHT22;5262;59.958;17.726;2024-01-10T04:34:42;-1.10;99.90
10431;DHT22;5262;59.958;17.726;2024-01-10T04:37:08;-1.20;99.90
10431;DHT22;5262;59.958;17.726;2024-01-10T04:39:34;-1.20;99.90
10431;DHT22;5262;59.958;17.726;2024-01-10T04:42:01;-1.20;99.90
10431;DHT22;5262;59.958;17.726;2024-01-10T04:44:27;-1.20;99.90
10431;DHT22;5262;59.958;17.726;2024-01-10T04:46:52;-1.20;99.90
10431;DHT22;5262;59.958;17.726;2024-01-10T04:49:18;-1.20;99.90
10431;DHT22;5262;59.958;17.726;2024-01-10T04:51:44;-1.30;99.90
10431;DHT22;5262;59.958;17.726;2024-01-10T04:54:10;-1.30;99.90
10431;DHT22;5262;59.958;17.726;2024-01-10T04:56:37;-1.30;99.90
10431;DHT22;5262;59.958;17.726;2024-01-10T04:59:03;-1.30;99.90
10431;DHT22;5262;59.958;17.726;2024-01-10T05:01:29;-1.30;99.90
10431;DHT22;5262;59.958;17.726;2024-01-10T05:03:54;-1.30;99.90
10431;DHT22;5262;59.958;17.726;2024-01-10T05:06:20;-1.30;99.90
10431;DHT22;5262;59.958;17.726;2024-01-10T05:08:45;-1.30;99.90
10431;DHT22;5262;59.958;17.726;2024-01-10T05:11:12;-1.30;99.90
10431;DHT22;5262;59.958;17.726;2024-01-10T05:13:38;-1.40;99.90
10431;DHT22;5262;59.958;17.726;2024-01-10T05:16:05;-1.40;99.90
10431;DHT22;5262;59.958;17.726;2024-01-10T05:18:30;-1.40;99.90
10431;DHT22;5262;59.958;17.726;2024-01-10T05:20:56;-1.40;99.90
10431;DHT22;5262;59.958;17.726;2024-01-10T05:23:23;-1.40;99.90
10431;DHT22;5262;59.958;17.726;2024-01-10T05:25:48;-1.40;99.90
10431;DHT22;5262;59.958;17.726;2024-01-10T05:28:14;-1.50;99.90
10431;DHT22;5262;59.958;17.726;2024-01-10T05:30:40;-1.50;99.90
10431;DHT22;5262;59.958;17.726;2024-01-10T05:33:08;-1.60;99.90
10431;DHT22;5262;59.958;17.726;2024-01-10T05:35:34;-1.60;99.90
10431;DHT22;5262;59.958;17.726;2024-01-10T05:38:01;-1.70;99.90
10431;DHT22;5262;59.958;17.726;2024-01-10T05:40:28;-1.90;99.90
10431;DHT22;5262;59.958;17.726;2024-01-10T05:42:55;-1.90;99.90
10431;DHT22;5262;59.958;17.726;2024-01-10T05:45:21;-2.00;99.90
10431;DHT22;5262;59.958;17.726;2024-01-10T05:47:47;-1.90;99.90
10431;DHT22;5262;59.958;17.726;2024-01-10T05:50:13;-1.90;99.90
10431;DHT22;5262;59.958;17.726;2024-01-10T05:52:39;-1.90;99.90
10431;DHT22;5262;59.958;17.726;2024-01-10T05:55:05;-2.00;99.90
10431;DHT22;5262;59.958;17.726;2024-01-10T05:57:34;-2.00;99.90
10431;DHT22;5262;59.958;17.726;2024-01-10T06:00:00;-1.90;99.90
10431;DHT22;5262;59.958;17.726;2024-01-10T06:02:26;-1.90;99.90
10431;DHT22;5262;59.958;17.726;2024-01-10T06:04:52;-2.00;99.90
10431;DHT22;5262;59.958;17.726;2024-01-10T06:07:18;-2.00;99.90
10431;DHT22;5262;59.958;17.726;2024-01-10T06:09:44;-2.10;99.90
10431;DHT22;5262;59.958;17.726;2024-01-10T06:12:09;-2.10;99.90
10431;DHT22;5262;59.958;17.726;2024-01-10T06:14:35;-2.10;99.90
10431;DHT22;5262;59.958;17.726;2024-01-10T06:17:01;-2.10;99.90
10431;DHT22;5262;59.958;17.726;2024-01-10T06:19:29;-2.10;99.90
10431;DHT22;5262;59.958;17.726;2024-01-10T06:21:57;-2.20;99.90
10431;DHT22;5262;59.958;17.726;2024-01-10T06:24:23;-2.20;99.90
10431;DHT22;5262;59.958;17.726;2024-01-10T06:26:48;-2.30;99.90
10431;DHT22;5262;59.958;17.726;2024-01-10T06:29:15;-2.40;99.90
10431;DHT22;5262;59.958;17.726;2024-01-10T06:31:41;-2.40;99.90
10431;DHT22;5262;59.958;17.726;2024-01-10T06:34:07;-2.40;99.90
10431;DHT22;5262;59.958;17.726;2024-01-10T06:36:33;-2.40;99.90
10431;DHT22;5262;59.958;17.726;2024-01-10T06:38:58;-2.30;99.90
10431;DHT22;5262;59.958;17.726;2024-01-10T06:41:24;-2.30;99.90
10431;DHT22;5262;59.958;17.726;2024-01-10T06:43:53;-2.30;99.90
10431;DHT22;5262;59.958;17.726;2024-01-10T06:46:20;-2.30;99.90
10431;DHT22;5262;59.958;17.726;2024-01-10T06:48:46;-2.30;99.90
10431;DHT22;5262;59.958;17.726;2024-01-10T06:51:13;-2.40;99.90
10431;DHT22;5262;59.958;17.726;2024-01-10T06:53:39;-2.40;99.90
10431;DHT22;5262;59.958;17.726;2024-01-10T06:56:05;-2.50;99.90
10431;DHT22;5262;59.958;17.726;2024-01-10T06:58:31;-2.60;99.90
10431;DHT22;5262;59.958;17.726;2024-01-10T07:00:57;-2.50;99.90
10431;DHT22;5262;59.958;17.726;2024-01-10T07:03:23;-2.50;99.90
10431;DHT22;5262;59.958;17.726;2024-01-10T07:05:49;-2.50;99.90
10431;DHT22;5262;59.958;17.726;2024-01-10T07:08:14;-2.50;99.90
10431;DHT22;5262;59.958;17.726;2024-01-10T07:10:42;-2.50;99.90
10431;DHT22;5262;59.958;17.726;2024-01-10T07:13:07;-2.40;99.90
10431;DHT22;5262;59.958;17.726;2024-01-10T07:15:33;-2.40;99.90
10431;DHT22;5262;59.958;17.726;2024-01-10T07:17:59;-2.40;99.90
10431;DHT22;5262;59.958;17.726;2024-01-10T07:20:25;-2.40;99.90
10431;DHT22;5262;59.958;17.726;2024-01-10T07:22:51;-2.40;99.90
10431;DHT22;5262;59.958;17.726;2024-01-10T07:25:17;-2.40;99.90
10431;DHT22;5262;59.958;17.726;2024-01-10T07:27:43;-2.40;99.90
10431;DHT22;5262;59.958;17.726;2024-01-10T07:30:09;-2.50;99.90
10431;DHT22;5262;59.958;17.726;2024-01-10T07:32:45;-2.40;99.90
10431;DHT22;5262;59.958;17.726;2024-01-10T07:35:12;-2.40;99.90
10431;DHT22;5262;59.958;17.726;2024-01-10T07:37:40;-2.40;99.90
10431;DHT22;5262;59.958;17.726;2024-01-10T07:40:09;-2.40;99.90
10431;DHT22;5262;59.958;17.726;2024-01-10T07:42:37;-2.40;99.90
10431;DHT22;5262;59.958;17.726;2024-01-10T07:45:03;-2.40;99.90
10431;DHT22;5262;59.958;17.726;2024-01-10T07:47:30;-2.40;99.90
10431;DHT22;5262;59.958;17.726;2024-01-10T07:49:57;-2.50;99.90
10431;DHT22;5262;59.958;17.726;2024-01-10T07:52:23;-2.50;99.90
10431;DHT22;5262;59.958;17.726;2024-01-10T07:54:49;-2.50;99.90
10431;DHT22;5262;59.958;17.726;2024-01-10T07:57:14;-2.40;99.90
10431;DHT22;5262;59.958;17.726;2024-01-10T07:59:40;-2.40;99.90
10431;DHT22;5262;59.958;17.726;2024-01-10T08:02:05;-2.40;99.90
10431;DHT22;5262;59.958;17.726;2024-01-10T08:04:32;-2.40;99.90
10431;DHT22;5262;59.958;17.726;2024-01-10T08:06:58;-2.40;99.90
10431;DHT22;5262;59.958;17.726;2024-01-10T08:09:24;-2.40;99.90
10431;DHT22;5262;59.958;17.726;2024-01-10T08:11:49;-2.50;99.90
10431;DHT22;5262;59.958;17.726;2024-01-10T08:14:15;-2.50;99.90
10431;DHT22;5262;59.958;17.726;2024-01-10T08:16:42;-2.50;99.90
10431;DHT22;5262;59.958;17.726;2024-01-10T08:19:08;-2.50;99.90
10431;DHT22;5262;59.958;17.726;2024-01-10T08:21:34;-2.50;99.90
10431;DHT22;5262;59.958;17.726;2024-01-10T08:24:02;-2.50;99.90
10431;DHT22;5262;59.958;17.726;2024-01-10T08:26:27;-2.40;99.90
10431;DHT22;5262;59.958;17.726;2024-01-10T08:28:53;-2.40;99.90
10431;DHT22;5262;59.958;17.726;2024-01-10T08:31:19;-2.30;99.90
10431;DHT22;5262;59.958;17.726;2024-01-10T08:33:45;-2.30;99.90
10431;DHT22;5262;59.958;17.726;2024-01-10T08:36:12;-2.20;99.90
10431;DHT22;5262;59.958;17.726;2024-01-10T08:38:39;-2.20;99.90
10431;DHT22;5262;59.958;17.726;2024-01-10T08:41:07;-2.20;99.90
10431;DHT22;5262;59.958;17.726;2024-01-10T08:43:33;-2.20;99.90
10431;DHT22;5262;59.958;17.726;2024-01-10T08:45:58;-2.20;99.90
10431;DHT22;5262;59.958;17.726;2024-01-10T08:48:24;-2.20;99.90
10431;DHT22;5262;59.958;17.726;2024-01-10T08:50:50;-2.20;99.90
10431;DHT22;5262;59.958;17.726;2024-01-10T08:53:16;-2.20;99.90
10431;DHT22;5262;59.958;17.726;2024-01-10T08:55:42;-2.10;99.90
10431;DHT22;5262;59.958;17.726;2024-01-10T08:58:08;-2.10;99.90
10431;DHT22;5262;59.958;17.726;2024-01-10T09:00:34;-2.00;99.90
10431;DHT22;5262;59.958;17.726;2024-01-10T09:03:00;-1.90;99.90
10431;DHT22;5262;59.958;17.726;2024-01-10T09:05:26;-1.80;99.90
10431;DHT22;5262;59.958;17.726;2024-01-10T09:07:52;-1.70;99.90
10431;DHT22;5262;59.958;17.726;2024-01-10T09:10:19;-1.70;99.90
10431;DHT22;5262;59.958;17.726;2024-01-10T09:12:47;-1.60;99.90
10431;DHT22;5262;59.958;17.726;2024-01-10T09:15:13;-1.70;99.90
10431;DHT22;5262;59.958;17.726;2024-01-10T09:17:43;-1.60;99.90
10431;DHT22;5262;59.958;17.726;2024-01-10T09:20:09;-1.60;99.90
10431;DHT22;5262;59.958;17.726;2024-01-10T09:22:36;-1.50;99.90
10431;DHT22;5262;59.958;17.726;2024-01-10T09:25:02;-1.30;99.90
10431;DHT22;5262;59.958;17.726;2024-01-10T09:27:30;-1.20;99.90
10431;DHT22;5262;59.958;17.726;2024-01-10T09:29:56;-1.20;99.90
10431;DHT22;5262;59.958;17.726;2024-01-10T09:32:22;-1.00;99.90
10431;DHT22;5262;59.958;17.726;2024-01-10T09:34:48;-0.90;99.90
10431;DHT22;5262;59.958;17.726;2024-01-10T09:37:13;-0.80;99.90
10431;DHT22;5262;59.958;17.726;2024-01-10T09:39:40;-0.70;99.90
10431;DHT22;5262;59.958;17.726;2024-01-10T09:42:06;-0.80;99.90
10431;DHT22;5262;59.958;17.726;2024-01-10T09:44:32;-0.80;99.90
10431;DHT22;5262;59.958;17.726;2024-01-10T09:46:58;-0.70;99.90
10431;DHT22;5262;59.958;17.726;2024-01-10T09:49:24;-0.70;99.90
10431;DHT22;5262;59.958;17.726;2024-01-10T09:51:53;-0.60;99.90
10431;DHT22;5262;59.958;17.726;2024-01-10T09:54:24;-0.60;99.90
10431;DHT22;5262;59.958;17.726;2024-01-10T09:56:51;-0.60;99.90
10431;DHT22;5262;59.958;17.726;2024-01-10T09:59:16;-0.60;99.90
10431;DHT22;5262;59.958;17.726;2024-01-10T10:01:42;-0.50;99.90
10431;DHT22;5262;59.958;17.726;2024-01-10T10:04:11;-0.40;99.90
10431;DHT22;5262;59.958;17.726;2024-01-10T10:06:37;-0.30;99.90
10431;DHT22;5262;59.958;17.726;2024-01-10T10:09:03;-0.20;99.90
10431;DHT22;5262;59.958;17.726;2024-01-10T10:11:29;-0.10;99.90
10431;DHT22;5262;59.958;17.726;2024-01-10T10:13:55;-0.10;99.90
10431;DHT22;5262;59.958;17.726;2024-01-10T10:16:25;0.00;99.90
10431;DHT22;5262;59.958;17.726;2024-01-10T10:18:54;0.00;99.90
10431;DHT22;5262;59.958;17.726;2024-01-10T10:21:24;0.10;99.90
10431;DHT22;5262;59.958;17.726;2024-01-10T10:23:58;0.20;99.90
10431;DHT22;5262;59.958;17.726;2024-01-10T10:26:27;0.20;99.90
10431;DHT22;5262;59.958;17.726;2024-01-10T10:28:53;0.30;99.90
10431;DHT22;5262;59.958;17.726;2024-01-10T10:31:19;0.30;99.90
10431;DHT22;5262;59.958;17.726;2024-01-10T10:33:47;0.30;99.90
10431;DHT22;5262;59.958;17.726;2024-01-10T10:36:14;0.30;99.90
10431;DHT22;5262;59.958;17.726;2024-01-10T10:38:40;0.30;99.90
10431;DHT22;5262;59.958;17.726;2024-01-10T10:41:06;0.40;99.90
10431;DHT22;5262;59.958;17.726;2024-01-10T10:43:39;0.50;99.90
10431;DHT22;5262;59.958;17.726;2024-01-10T10:46:06;0.60;99.90
10431;DHT22;5262;59.958;17.726;2024-01-10T10:48:33;0.60;99.90
10431;DHT22;5262;59.958;17.726;2024-01-10T10:51:05;0.70;99.90
10431;DHT22;5262;59.958;17.726;2024-01-10T10:53:38;0.80;99.90
10431;DHT22;5262;59.958;17.726;2024-01-10T10:56:06;0.90;99.90
10431;DHT22;5262;59.958;17.726;2024-01-10T10:58:39;0.90;99.90
10431;DHT22;5262;59.958;17.726;2024-01-10T11:01:05;1.00;99.90
10431;DHT22;5262;59.958;17.726;2024-01-10T11:03:38;1.10;99.90
10431;DHT22;5262;59.958;17.726;2024-01-10T11:06:09;1.10;99.90
10431;DHT22;5262;59.958;17.726;2024-01-10T11:08:37;1.20;99.90
10431;DHT22;5262;59.958;17.726;2024-01-10T11:11:07;1.30;99.90
10431;DHT22;5262;59.958;17.726;2024-01-10T11:14:04;1.30;99.90
10431;DHT22;5262;59.958;17.726;2024-01-10T11:16:49;1.40;99.90
10431;DHT22;5262;59.958;17.726;2024-01-10T11:24:48;1.50;99.90
10431;DHT22;5262;59.958;17.726;2024-01-10T11:27:15;1.50;99.90
10431;DHT22;5262;59.958;17.726;2024-01-10T11:29:46;1.50;99.90
10431;DHT22;5262;59.958;17.726;2024-01-10T11:32:16;1.50;99.90
10431;DHT22;5262;59.958;17.726;2024-01-10T11:34:57;1.50;99.90
10431;DHT22;5262;59.958;17.726;2024-01-10T11:37:49;1.50;99.90
10431;DHT22;5262;59.958;17.726;2024-01-10T11:40:45;1.40;99.90
10431;DHT22;5262;59.958;17.726;2024-01-10T11:43:12;1.40;99.90
10431;DHT22;5262;59.958;17.726;2024-01-10T11:45:41;1.30;99.90
10431;DHT22;5262;59.958;17.726;2024-01-10T11:48:15;1.20;99.90
10431;DHT22;5262;59.958;17.726;2024-01-10T11:50:41;1.10;99.90
10431;DHT22;5262;59.958;17.726;2024-01-10T11:53:07;1.00;99.90
10431;DHT22;5262;59.958;17.726;2024-01-10T11:55:51;1.00;99.90
10431;DHT22;5262;59.958;17.726;2024-01-10T11:58:17;1.00;99.90
10431;DHT22;5262;59.958;17.726;2024-01-10T12:00:43;0.90;99.90
10431;DHT22;5262;59.958;17.726;2024-01-10T12:03:13;0.90;99.90
10431;DHT22;5262;59.958;17.726;2024-01-10T12:05:39;0.80;99.90
10431;DHT22;5262;59.958;17.726;2024-01-10T12:08:09;0.80;99.90
10431;DHT22;5262;59.958;17.726;2024-01-10T12:10:35;0.70;99.90
10431;DHT22;5262;59.958;17.726;2024-01-10T12:13:03;0.70;99.90
10431;DHT22;5262;59.958;17.726;2024-01-10T12:15:29;0.70;99.90
10431;DHT22;5262;59.958;17.726;2024-01-10T12:17:55;0.70;99.90
10431;DHT22;5262;59.958;17.726;2024-01-10T12:20:21;0.70;99.90
10431;DHT22;5262;59.958;17.726;2024-01-10T12:22:47;0.70;99.90
10431;DHT22;5262;59.958;17.726;2024-01-10T12:25:13;0.70;99.90
10431;DHT22;5262;59.958;17.726;2024-01-10T12:27:39;0.70;99.90
10431;DHT22;5262;59.958;17.726;2024-01-10T12:30:05;0.70;99.90
10431;DHT22;5262;59.958;17.726;2024-01-10T12:32:31;0.70;99.90
10431;DHT22;5262;59.958;17.726;2024-01-10T12:35:02;0.70;99.90
10431;DHT22;5262;59.958;17.726;2024-01-10T12:37:28;0.70;99.90
10431;DHT22;5262;59.958;17.726;2024-01-10T12:39:54;0.60;99.90
10431;DHT22;5262;59.958;17.726;2024-01-10T12:42:19;0.60;99.90
10431;DHT22;5262;59.958;17.726;2024-01-10T12:44:45;0.60;99.90
10431;DHT22;5262;59.958;17.726;2024-01-10T12:47:18;0.60;99.90
10431;DHT22;5262;59.958;17.726;2024-01-10T12:49:45;0.60;99.90
10431;DHT22;5262;59.958;17.726;2024-01-10T12:52:12;0.60;99.90
10431;DHT22;5262;59.958;17.726;2024-01-10T12:54:39;0.60;99.90
10431;DHT22;5262;59.958;17.726;2024-01-10T12:57:04;0.60;99.90
10431;DHT22;5262;59.958;17.726;2024-01-10T12:59:30;0.60;99.90
10431;DHT22;5262;59.958;17.726;2024-01-10T13:01:56;0.60;99.90
10431;DHT22;5262;59.958;17.726;2024-01-10T13:04:22;0.50;99.90
10431;DHT22;5262;59.958;17.726;2024-01-10T13:06:51;0.50;99.90
10431;DHT22;5262;59.958;17.726;2024-01-10T13:09:17;0.50;99.90
10431;DHT22;5262;59.958;17.726;2024-01-10T13:11:43;0.40;99.90
10431;DHT22;5262;59.958;17.726;2024-01-10T13:14:09;0.50;99.90
10431;DHT22;5262;59.958;17.726;2024-01-10T13:16:35;0.60;99.90
10431;DHT22;5262;59.958;17.726;2024-01-10T13:19:00;0.60;99.90
10431;DHT22;5262;59.958;17.726;2024-01-10T13:21:26;0.60;99.90
10431;DHT22;5262;59.958;17.726;2024-01-10T13:23:52;0.70;99.90
10431;DHT22;5262;59.958;17.726;2024-01-10T13:26:18;0.70;99.90
10431;DHT22;5262;59.958;17.726;2024-01-10T13:28:43;0.70;99.90
10431;DHT22;5262;59.958;17.726;2024-01-10T13:31:09;0.70;99.90
10431;DHT22;5262;59.958;17.726;2024-01-10T13:33:36;0.70;99.90
10431;DHT22;5262;59.958;17.726;2024-01-10T13:36:03;0.80;99.90
10431;DHT22;5262;59.958;17.726;2024-01-10T13:38:30;0.80;99.90
10431;DHT22;5262;59.958;17.726;2024-01-10T13:40:56;0.70;99.90
10431;DHT22;5262;59.958;17.726;2024-01-10T13:43:21;0.70;99.90
10431;DHT22;5262;59.958;17.726;2024-01-10T13:45:47;0.70;99.90
10431;DHT22;5262;59.958;17.726;2024-01-10T13:48:13;0.80;99.90
10431;DHT22;5262;59.958;17.726;2024-01-10T13:50:38;0.80;99.90
10431;DHT22;5262;59.958;17.726;2024-01-10T13:53:04;0.70;99.90
10431;DHT22;5262;59.958;17.726;2024-01-10T13:55:30;0.70;99.90
10431;DHT22;5262;59.958;17.726;2024-01-10T13:57:56;0.70;99.90
10431;DHT22;5262;59.958;17.726;2024-01-10T14:00:22;0.70;99.90
10431;DHT22;5262;59.958;17.726;2024-01-10T14:02:48;0.70;99.90
10431;DHT22;5262;59.958;17.726;2024-01-10T14:05:14;0.70;99.90
10431;DHT22;5262;59.958;17.726;2024-01-10T14:07:40;0.70;99.90
10431;DHT22;5262;59.958;17.726;2024-01-10T14:10:10;0.60;99.90
10431;DHT22;5262;59.958;17.726;2024-01-10T14:12:36;0.60;99.90
10431;DHT22;5262;59.958;17.726;2024-01-10T14:15:02;0.50;99.90
10431;DHT22;5262;59.958;17.726;2024-01-10T14:17:29;0.50;99.90
10431;DHT22;5262;59.958;17.726;2024-01-10T14:19:55;0.50;99.90
10431;DHT22;5262;59.958;17.726;2024-01-10T14:22:21;0.60;99.90
10431;DHT22;5262;59.958;17.726;2024-01-10T14:24:49;0.40;99.90
10431;DHT22;5262;59.958;17.726;2024-01-10T14:27:16;0.40;99.90
10431;DHT22;5262;59.958;17.726;2024-01-10T14:29:42;0.30;99.90
10431;DHT22;5262;59.958;17.726;2024-01-10T14:32:07;0.20;99.90
10431;DHT22;5262;59.958;17.726;2024-01-10T14:34:33;0.20;99.90
10431;DHT22;5262;59.958;17.726;2024-01-10T14:36:59;0.00;99.90
10431;DHT22;5262;59.958;17.726;2024-01-10T14:39:24;0.00;99.90
10431;DHT22;5262;59.958;17.726;2024-01-10T14:41:50;-0.10;99.90
10431;DHT22;5262;59.958;17.726;2024-01-10T14:44:16;-0.20;99.90
10431;DHT22;5262;59.958;17.726;2024-01-10T14:46:42;-0.10;99.90
10431;DHT22;5262;59.958;17.726;2024-01-10T14:49:08;-0.10;99.90
10431;DHT22;5262;59.958;17.726;2024-01-10T14:51:34;-0.10;99.90
10431;DHT22;5262;59.958;17.726;2024-01-10T14:54:00;-0.10;99.90
10431;DHT22;5262;59.958;17.726;2024-01-10T14:56:25;-0.20;99.90
10431;DHT22;5262;59.958;17.726;2024-01-10T14:58:51;-0.20;99.90
10431;DHT22;5262;59.958;17.726;2024-01-10T15:01:17;-0.30;99.90
10431;DHT22;5262;59.958;17.726;2024-01-10T15:03:43;-0.20;99.90
10431;DHT22;5262;59.958;17.726;2024-01-10T15:06:08;-0.20;99.90
10431;DHT22;5262;59.958;17.726;2024-01-10T15:08:34;-0.10;99.90
10431;DHT22;5262;59.958;17.726;2024-01-10T15:11:01;-0.10;99.90
10431;DHT22;5262;59.958;17.726;2024-01-10T15:13:26;-0.20;99.90
10431;DHT22;5262;59.958;17.726;2024-01-10T15:15:52;-0.20;99.90
10431;DHT22;5262;59.958;17.726;2024-01-10T15:18:18;-0.20;99.90
10431;DHT22;5262;59.958;17.726;2024-01-10T15:20:45;-0.10;99.90
10431;DHT22;5262;59.958;17.726;2024-01-10T15:23:11;-0.10;99.90
10431;DHT22;5262;59.958;17.726;2024-01-10T15:25:37;-0.10;99.90
10431;DHT22;5262;59.958;17.726;2024-01-10T15:28:05;-0.10;99.90
10431;DHT22;5262;59.958;17.726;2024-01-10T15:30:30;0.00;99.90
10431;DHT22;5262;59.958;17.726;2024-01-10T15:32:58;0.00;99.90
10431;DHT22;5262;59.958;17.726;2024-01-10T15:35:24;0.00;99.90
10431;DHT22;5262;59.958;17.726;2024-01-10T15:37:50;0.00;99.90